Time;durP1;ratioP1;P1;durP2;ratioP2;P2;SDS_P1;SDS_P2;PMS_P1;PMS_P2;Temp;Humidity;BMP_temperature;BMP_pressure;BME280_temperature;BME280_humidity;BME280_pressure;Samples;Min_cycle;Max_cycle;Signal;HPM_P1;HPM_P2
2023/05/02 00:01:29;;;;;;;83.00;51.80;;;;;;;;;;5055773;28;20232;-78
2023/05/02 00:03:55;;;;;;;84.30;50.53;;;;;;;;;;5055273;28;20533;-77
2023/05/02 00:06:21;;;;;;;90.30;53.55;;;;;;;;;;5055661;28;20181;-77
2023/05/02 00:08:49;;;;;;;94.80;54.08;;;;;;;;;;5055190;28;20224;-77
2023/05/02 00:11:15;;;;;;;97.03;55.88;;;;;;;;;;5055606;28;20173;-77
2023/05/02 00:13:42;;;;;;;91.60;54.40;;;;;;;;;;5056245;28;20181;-77
2023/05/02 00:16:09;;;;;;;97.18;57.85;;;;;;;;;;5037925;28;20195;-77
2023/05/02 00:18:35;;;;;;;108.03;58.05;;;;;;;;;;5037826;28;20312;-77
2023/05/02 00:21:02;;;;;;;96.40;55.97;;;;;;;;;;5055318;28;20177;-77
2023/05/02 00:23:28;;;;;;;110.05;59.35;;;;;;;;;;5037557;28;20416;-76
2023/05/02 00:25:54;;;;;;;108.28;60.40;;;;;;;;;;5021417;28;20284;-79
2023/05/02 00:28:20;;;;;;;98.18;55.83;;;;;;;;;;5037897;28;20200;-77
2023/05/02 00:30:46;;;;;;;101.32;57.15;;;;;;;;;;5037775;28;20189;-77
2023/05/02 00:33:13;;;;;;;106.20;58.97;;;;;;;;;;5037846;28;20181;-77
2023/05/02 00:35:39;;;;;;;108.68;60.75;;;;;;;;;;5055783;28;20172;-77
2023/05/02 00:38:06;;;;;;;106.07;58.28;;;;;;;;;;5055566;28;20181;-77
2023/05/02 00:40:42;;;;;;;104.10;57.83;;;;;;;;;;5037667;28;20578;-77
2023/05/02 00:43:08;;;;;;;98.10;61.05;;;;;;;;;;5055791;28;20158;-77
2023/05/02 00:45:34;;;;;;;114.25;61.65;;;;;;;;;;5055571;28;20177;-77
2023/05/02 00:48:00;;;;;;;113.40;60.13;;;;;;;;;;5021268;28;20205;-77
2023/05/02 00:50:26;;;;;;;123.78;63.15;;;;;;;;;;5037771;28;20178;-77
2023/05/02 00:52:54;;;;;;;122.88;64.80;;;;;;;;;;5037647;28;20587;-77
2023/05/02 00:55:21;;;;;;;120.72;64.55;;;;;;;;;;5038306;28;20178;-76
2023/05/02 00:57:47;;;;;;;122.95;61.05;;;;;;;;;;5055769;28;20235;-77
2023/05/02 01:00:13;;;;;;;118.28;67.38;;;;;;;;;;5037078;28;20673;-77
2023/05/02 01:02:39;;;;;;;128.82;64.90;;;;;;;;;;5055161;28;20243;-77
2023/05/02 01:05:10;;;;;;;131.03;69.10;;;;;;;;;;5054777;28;20177;-77
2023/05/02 01:07:50;;;;;;;128.30;68.40;;;;;;;;;;5055831;28;20487;-77
2023/05/02 01:10:16;;;;;;;137.18;69.13;;;;;;;;;;5055848;28;20272;-77
2023/05/02 01:12:43;;;;;;;119.43;63.77;;;;;;;;;;5037811;28;20205;-77
2023/05/02 01:15:10;;;;;;;151.32;71.20;;;;;;;;;;5055602;28;20518;-77
2023/05/02 01:17:38;;;;;;;130.52;65.15;;;;;;;;;;5055772;28;20184;-77
2023/05/02 01:20:09;;;;;;;133.70;66.53;;;;;;;;;;5055315;28;20534;-77
2023/05/02 01:22:37;;;;;;;131.95;68.35;;;;;;;;;;5055410;28;20617;-77
2023/05/02 01:25:03;;;;;;;129.55;68.68;;;;;;;;;;5054891;28;20227;-77
2023/05/02 01:27:55;;;;;;;153.17;74.50;;;;;;;;;;5056082;28;20626;-77
2023/05/02 01:30:22;;;;;;;132.00;68.30;;;;;;;;;;5055029;28;20412;-77
2023/05/02 01:32:49;;;;;;;139.18;70.30;;;;;;;;;;5040937;28;20227;-77
2023/05/02 01:35:16;;;;;;;141.85;70.85;;;;;;;;;;5058570;28;20178;-77
2023/05/02 01:37:44;;;;;;;150.13;77.68;;;;;;;;;;5058583;28;20193;-77
2023/05/02 01:40:11;;;;;;;140.32;71.07;;;;;;;;;;5058592;28;20641;-76
2023/05/02 01:42:38;;;;;;;140.50;69.40;;;;;;;;;;5058958;28;20251;-77
2023/05/02 01:45:06;;;;;;;145.38;69.72;;;;;;;;;;5058448;28;20169;-77
2023/05/02 01:47:35;;;;;;;125.75;66.53;;;;;;;;;;5040663;28;20174;-77
2023/05/02 01:50:03;;;;;;;133.48;64.10;;;;;;;;;;5040314;28;20186;-77
2023/05/02 01:52:29;;;;;;;136.63;67.85;;;;;;;;;;5040616;28;20181;-77
2023/05/02 01:54:56;;;;;;;147.38;70.00;;;;;;;;;;5058927;28;20200;-77
2023/05/02 01:57:23;;;;;;;131.65;63.63;;;;;;;;;;5040669;28;20630;-77
2023/05/02 01:59:50;;;;;;;107.95;49.10;;;;;;;;;;5058671;28;20173;-77
2023/05/02 02:02:16;;;;;;;145.20;64.38;;;;;;;;;;5039782;28;20244;-77
2023/05/02 02:04:43;;;;;;;135.55;64.57;;;;;;;;;;5039844;28;20174;-77
2023/05/02 02:07:10;;;;;;;148.07;66.97;;;;;;;;;;5040033;28;20177;-77
2023/05/02 02:09:36;;;;;;;135.90;57.20;;;;;;;;;;5039988;28;20205;-77
2023/05/02 02:12:08;;;;;;;135.45;62.42;;;;;;;;;;5039677;28;20181;-77
2023/05/02 02:14:36;;;;;;;127.05;59.78;;;;;;;;;;5058465;28;20188;-77
2023/05/02 02:17:06;;;;;;;146.32;60.92;;;;;;;;;;5040427;28;20514;-77
2023/05/02 02:19:32;;;;;;;134.00;57.45;;;;;;;;;;5040609;28;20177;-77
2023/05/02 02:21:58;;;;;;;128.52;57.95;;;;;;;;;;5058340;28;20260;-77
2023/05/02 02:24:25;;;;;;;131.90;58.75;;;;;;;;;;5040507;28;20180;-77
2023/05/02 02:26:51;;;;;;;130.20;55.47;;;;;;;;;;5039858;28;20272;-77
2023/05/02 02:29:17;;;;;;;127.57;53.90;;;;;;;;;;5023745;28;20316;-78
2023/05/02 02:31:43;;;;;;;128.60;56.15;;;;;;;;;;5057778;28;20195;-77
2023/05/02 02:34:10;;;;;;;135.50;56.40;;;;;;;;;;5057761;28;20624;-77
2023/05/02 02:36:46;;;;;;;115.55;52.92;;;;;;;;;;5040320;28;20185;-77
2023/05/02 02:39:17;;;;;;;130.00;53.78;;;;;;;;;;5057722;28;20193;-78
2023/05/02 02:41:50;;;;;;;119.07;51.85;;;;;;;;;;5057929;28;20248;-77
2023/05/02 02:44:34;;;;;;;116.97;49.28;;;;;;;;;;5058252;28;20162;-77
2023/05/02 02:47:06;;;;;;;126.80;49.38;;;;;;;;;;5058678;28;20169;-77
2023/05/02 02:49:46;;;;;;;119.03;50.22;;;;;;;;;;5057735;28;20190;-76
2023/05/02 02:52:15;;;;;;;116.43;49.50;;;;;;;;;;5058230;28;20169;-76
2023/05/02 02:54:57;;;;;;;127.80;50.97;;;;;;;;;;5057683;28;20209;-77
2023/05/02 02:57:47;;;;;;;120.70;53.40;;;;;;;;;;5058094;28;20690;-77
2023/05/02 03:00:20;;;;;;;120.63;51.63;;;;;;;;;;5049439;28;20250;-77
2023/05/02 03:02:46;;;;;;;110.70;50.92;;;;;;;;;;5039784;28;20720;-77
2023/05/02 03:05:13;;;;;;;114.28;49.30;;;;;;;;;;5057863;28;20181;-77
2023/05/02 03:07:39;;;;;;;117.30;50.20;;;;;;;;;;5057486;28;20531;-77
2023/05/02 03:10:06;;;;;;;121.65;51.13;;;;;;;;;;5038885;28;20197;-77
2023/05/02 03:12:32;;;;;;;100.78;48.58;;;;;;;;;;5057762;28;20200;-77
2023/05/02 03:15:22;;;;;;;119.90;51.38;;;;;;;;;;5057554;28;20176;-77
2023/05/02 03:17:48;;;;;;;113.70;49.00;;;;;;;;;;5029125;28;20185;-77
2023/05/02 03:20:14;;;;;;;105.47;47.38;;;;;;;;;;5023088;28;20756;-77
2023/05/02 03:22:40;;;;;;;120.15;51.17;;;;;;;;;;5057413;28;20205;-77
2023/05/02 03:25:06;;;;;;;102.55;49.75;;;;;;;;;;5038968;28;20193;-77
2023/05/02 03:27:32;;;;;;;106.32;53.13;;;;;;;;;;5039305;28;20178;-77
2023/05/02 03:29:59;;;;;;;114.28;53.78;;;;;;;;;;5057092;28;20178;-77
2023/05/02 03:32:25;;;;;;;118.60;51.38;;;;;;;;;;5056933;28;20192;-77
2023/05/02 03:34:57;;;;;;;113.70;52.28;;;;;;;;;;5039458;28;20520;-77
2023/05/02 03:37:23;;;;;;;116.15;52.05;;;;;;;;;;5040438;28;20630;-77
2023/05/02 03:39:49;;;;;;;101.10;50.47;;;;;;;;;;5038969;28;20205;-77
2023/05/02 03:42:15;;;;;;;108.05;52.42;;;;;;;;;;5038732;28;20637;-77
2023/05/02 03:44:41;;;;;;;102.40;50.05;;;;;;;;;;5038963;28;20184;-77
2023/05/02 03:47:07;;;;;;;110.90;51.83;;;;;;;;;;5039348;28;20170;-78
2023/05/02 03:49:36;;;;;;;120.38;54.85;;;;;;;;;;5038314;28;20251;-77
2023/05/02 03:52:02;;;;;;;111.07;52.75;;;;;;;;;;5038680;28;20268;-77
2023/05/02 03:54:31;;;;;;;106.43;51.75;;;;;;;;;;5056509;28;20557;-76
2023/05/02 03:56:58;;;;;;;117.13;54.38;;;;;;;;;;5056483;28;20200;-77
2023/05/02 03:59:24;;;;;;;113.63;51.63;;;;;;;;;;5056289;28;20173;-77
2023/05/02 04:01:50;;;;;;;112.83;52.60;;;;;;;;;;5038273;28;20244;-77
2023/05/02 04:04:16;;;;;;;101.05;51.10;;;;;;;;;;5038667;28;20427;-77
2023/05/02 04:06:42;;;;;;;116.88;55.03;;;;;;;;;;5055735;28;20658;-77
2023/05/02 04:09:08;;;;;;;101.30;52.37;;;;;;;;;;5055918;28;20204;-78
2023/05/02 04:11:34;;;;;;;121.90;56.33;;;;;;;;;;5038340;28;20818;-77
2023/05/02 04:14:00;;;;;;;112.15;52.17;;;;;;;;;;5038559;28;20544;-77
2023/05/02 04:16:26;;;;;;;118.53;55.35;;;;;;;;;;5021667;28;20633;-77
2023/05/02 04:18:52;;;;;;;114.75;51.70;;;;;;;;;;5038126;28;20192;-77
2023/05/02 04:21:18;;;;;;;114.25;51.20;;;;;;;;;;5021757;28;20188;-77
2023/05/02 04:23:44;;;;;;;111.68;50.15;;;;;;;;;;5056421;28;20177;-77
2023/05/02 04:26:10;;;;;;;100.07;50.75;;;;;;;;;;5056128;28;20500;-77
2023/05/02 04:28:37;;;;;;;110.70;50.58;;;;;;;;;;5056529;28;20207;-77
2023/05/02 04:31:03;;;;;;;90.78;43.03;;;;;;;;;;5056248;28;20181;-77
2023/05/02 04:33:30;;;;;;;89.68;43.30;;;;;;;;;;5056034;28;20510;-77
2023/05/02 04:35:56;;;;;;;99.28;46.80;;;;;;;;;;5038689;28;20235;-77
2023/05/02 04:38:22;;;;;;;80.72;36.95;;;;;;;;;;5021978;28;20185;-77
2023/05/02 04:40:51;;;;;;;80.80;37.58;;;;;;;;;;5021895;28;20181;-77
2023/05/02 04:43:17;;;;;;;78.05;36.03;;;;;;;;;;5038072;28;20182;-76
2023/05/02 04:45:43;;;;;;;83.85;37.70;;;;;;;;;;5038442;28;20648;-77
2023/05/02 04:48:09;;;;;;;79.13;36.55;;;;;;;;;;5055875;28;20304;-77
2023/05/02 04:50:35;;;;;;;60.20;33.78;;;;;;;;;;5038074;28;20304;-77
2023/05/02 04:53:01;;;;;;;68.60;31.13;;;;;;;;;;5037779;28;20184;-77
2023/05/02 04:55:27;;;;;;;61.50;31.77;;;;;;;;;;5038005;28;20177;-77
2023/05/02 04:57:53;;;;;;;60.85;30.30;;;;;;;;;;5037883;28;20188;-77
2023/05/02 05:00:20;;;;;;;66.07;29.13;;;;;;;;;;5055750;28;20201;-77
2023/05/02 05:02:46;;;;;;;58.92;28.17;;;;;;;;;;5037825;28;20475;-77
2023/05/02 05:05:12;;;;;;;64.35;28.55;;;;;;;;;;5058545;28;20173;-78
2023/05/02 05:07:38;;;;;;;60.63;27.38;;;;;;;;;;5059465;28;20189;-77
2023/05/02 05:10:05;;;;;;;51.65;26.05;;;;;;;;;;5041849;28;20182;-77
2023/05/02 05:12:31;;;;;;;52.95;26.77;;;;;;;;;;5059636;28;20185;-77
2023/05/02 05:14:57;;;;;;;55.67;25.98;;;;;;;;;;5059783;28;20188;-77
2023/05/02 05:17:23;;;;;;;52.15;24.52;;;;;;;;;;5059608;28;20166;-77
2023/05/02 05:19:49;;;;;;;46.80;24.43;;;;;;;;;;5042018;28;20193;-76
2023/05/02 05:22:15;;;;;;;43.17;23.65;;;;;;;;;;5041866;28;20424;-78
2023/05/02 05:24:41;;;;;;;45.38;22.40;;;;;;;;;;5059652;28;20185;-77
2023/05/02 05:27:08;;;;;;;43.42;22.38;;;;;;;;;;5041152;28;20626;-77
2023/05/02 05:29:34;;;;;;;42.58;22.75;;;;;;;;;;5059349;28;20201;-76
2023/05/02 05:32:01;;;;;;;40.60;22.35;;;;;;;;;;5042098;28;20178;-77
2023/05/02 05:34:27;;;;;;;41.20;21.58;;;;;;;;;;5058763;28;20634;-77
2023/05/02 05:36:53;;;;;;;45.15;23.08;;;;;;;;;;5025251;28;20542;-77
2023/05/02 05:39:19;;;;;;;43.90;22.70;;;;;;;;;;5058702;28;20522;-77
2023/05/02 05:41:45;;;;;;;39.58;22.02;;;;;;;;;;5059472;28;20294;-77
2023/05/02 05:44:11;;;;;;;45.80;21.98;;;;;;;;;;5041601;28;20184;-77
2023/05/02 05:46:37;;;;;;;47.33;21.40;;;;;;;;;;5040892;28;20204;-77
2023/05/02 05:49:03;;;;;;;42.72;21.15;;;;;;;;;;5058540;28;20194;-77
2023/05/02 05:51:30;;;;;;;42.35;22.50;;;;;;;;;;5058107;28;20185;-76
2023/05/02 05:53:56;;;;;;;41.20;22.58;;;;;;;;;;5024434;28;20173;-77
2023/05/02 05:56:22;;;;;;;42.95;23.17;;;;;;;;;;5041004;28;20180;-77
2023/05/02 05:58:48;;;;;;;43.50;22.63;;;;;;;;;;5041121;28;20542;-77
2023/05/02 06:01:14;;;;;;;46.20;22.00;;;;;;;;;;5057835;28;20673;-79
2023/05/02 06:03:40;;;;;;;40.60;22.08;;;;;;;;;;5040484;28;20169;-77
2023/05/02 06:06:06;;;;;;;40.60;21.25;;;;;;;;;;5058852;28;20169;-77
2023/05/02 06:08:32;;;;;;;41.38;20.45;;;;;;;;;;5024158;28;20213;-77
2023/05/02 06:10:58;;;;;;;48.80;22.48;;;;;;;;;;5041375;28;20215;-77
2023/05/02 06:13:25;;;;;;;39.47;22.15;;;;;;;;;;5058682;28;20204;-77
2023/05/02 06:15:51;;;;;;;41.85;22.23;;;;;;;;;;5039747;28;20206;-77
2023/05/02 06:18:17;;;;;;;36.72;21.17;;;;;;;;;;5040025;28;20186;-77
2023/05/02 06:20:43;;;;;;;38.42;20.65;;;;;;;;;;5058466;28;20224;-77
2023/05/02 06:23:09;;;;;;;39.83;21.25;;;;;;;;;;5057779;28;20170;-77
2023/05/02 06:25:38;;;;;;;42.40;21.58;;;;;;;;;;5023351;28;20280;-77
2023/05/02 06:28:05;;;;;;;44.10;21.90;;;;;;;;;;5058753;28;20228;-78
2023/05/02 06:30:31;;;;;;;45.17;20.88;;;;;;;;;;5058109;28;20178;-77
2023/05/02 06:32:56;;;;;;;52.37;21.90;;;;;;;;;;5040516;28;20193;-77
2023/05/02 06:35:22;;;;;;;48.63;23.87;;;;;;;;;;5040512;28;20420;-78
2023/05/02 06:37:48;;;;;;;41.70;21.83;;;;;;;;;;5040867;28;20416;-77
2023/05/02 06:40:14;;;;;;;38.53;20.27;;;;;;;;;;5058607;28;20506;-77
2023/05/02 06:42:40;;;;;;;47.20;23.38;;;;;;;;;;5058256;28;20408;-77
2023/05/02 06:45:07;;;;;;;39.30;22.60;;;;;;;;;;5058105;28;20193;-77
2023/05/02 06:47:33;;;;;;;41.55;21.27;;;;;;;;;;5058441;28;20543;-77
2023/05/02 06:49:59;;;;;;;36.47;20.70;;;;;;;;;;5023405;28;20668;-77
2023/05/02 06:52:25;;;;;;;40.80;20.77;;;;;;;;;;5057393;28;20558;-77
2023/05/02 06:54:51;;;;;;;41.75;20.50;;;;;;;;;;5023714;28;20904;-77
2023/05/02 06:57:17;;;;;;;36.57;20.47;;;;;;;;;;5057901;28;20177;-82
2023/05/02 06:59:43;;;;;;;40.05;22.00;;;;;;;;;;5040154;28;20420;-77
2023/05/02 07:02:09;;;;;;;36.60;19.98;;;;;;;;;;5057695;28;20221;-77
2023/05/02 07:04:35;;;;;;;37.23;19.57;;;;;;;;;;5057116;28;20170;-77
2023/05/02 07:07:01;;;;;;;37.73;20.70;;;;;;;;;;5039838;28;20416;-77
2023/05/02 07:09:27;;;;;;;39.35;21.63;;;;;;;;;;5039419;28;20636;-77
2023/05/02 07:11:53;;;;;;;35.90;19.80;;;;;;;;;;5057471;28;20299;-77
2023/05/02 07:14:19;;;;;;;35.10;19.90;;;;;;;;;;5057165;28;20223;-79
2023/05/02 07:16:45;;;;;;;31.77;18.10;;;;;;;;;;5039270;28;20838;-77
2023/05/02 07:19:11;;;;;;;35.70;18.77;;;;;;;;;;5057006;28;20411;-77
2023/05/02 07:21:37;;;;;;;25.83;16.50;;;;;;;;;;5039688;28;20892;-77
2023/05/02 07:24:03;;;;;;;25.80;16.47;;;;;;;;;;5057550;28;20396;-77
2023/05/02 07:26:29;;;;;;;33.50;16.48;;;;;;;;;;5038326;28;20474;-77
2023/05/02 07:28:55;;;;;;;31.92;16.48;;;;;;;;;;5039063;28;20240;-77
2023/05/02 07:31:21;;;;;;;25.07;14.10;;;;;;;;;;5039243;28;20193;-78
2023/05/02 07:33:47;;;;;;;20.20;13.67;;;;;;;;;;5056934;28;20444;-77
2023/05/02 07:36:13;;;;;;;17.80;12.00;;;;;;;;;;5039057;28;20943;-77
2023/05/02 07:38:39;;;;;;;16.95;11.65;;;;;;;;;;5056529;28;20470;-77
2023/05/02 07:41:05;;;;;;;18.80;10.50;;;;;;;;;;5056023;28;20177;-77
2023/05/02 07:43:31;;;;;;;14.43;10.10;;;;;;;;;;5021646;28;20416;-77
2023/05/02 07:45:57;;;;;;;17.40;10.98;;;;;;;;;;5056750;28;20415;-77
2023/05/02 07:48:23;;;;;;;18.38;10.02;;;;;;;;;;5055991;28;20193;-77
2023/05/02 07:50:49;;;;;;;17.20;12.00;;;;;;;;;;5055786;28;20177;-77
2023/05/02 07:53:15;;;;;;;21.03;10.30;;;;;;;;;;5055951;28;20652;-77
2023/05/02 07:55:41;;;;;;;18.42;10.80;;;;;;;;;;5038032;28;20420;-78
2023/05/02 07:58:07;;;;;;;18.60;13.00;;;;;;;;;;5038110;28;20184;-77
2023/05/02 08:00:33;;;;;;;21.23;11.20;;;;;;;;;;5021602;28;20474;-79
2023/05/02 08:02:59;;;;;;;13.77;8.95;;;;;;;;;;5038269;28;20558;-77
2023/05/02 08:05:25;;;;;;;7.68;6.13;;;;;;;;;;5056067;28;20213;-77
2023/05/02 08:07:51;;;;;;;8.27;6.40;;;;;;;;;;5038301;28;20180;-78
2023/05/02 08:10:17;;;;;;;8.20;5.20;;;;;;;;;;5038737;28;20765;-77
2023/05/02 08:12:43;;;;;;;8.93;5.00;;;;;;;;;;5038127;28;20404;-77
2023/05/02 08:15:11;;;;;;;11.57;4.77;;;;;;;;;;5055928;28;20407;-78
2023/05/02 08:17:37;;;;;;;6.97;5.05;;;;;;;;;;5055400;28;20415;-80
2023/05/02 08:20:04;;;;;;;7.87;4.80;;;;;;;;;;5055329;28;20241;-78
2023/05/02 08:22:30;;;;;;;9.83;4.63;;;;;;;;;;5037603;28;20409;-79
2023/05/02 08:24:56;;;;;;;5.57;3.40;;;;;;;;;;5037825;28;20396;-78
2023/05/02 08:27:22;;;;;;;7.30;3.60;;;;;;;;;;5056030;28;20816;-83
2023/05/02 08:29:48;;;;;;;7.70;3.17;;;;;;;;;;5036822;28;20470;-78
2023/05/02 08:32:14;;;;;;;6.33;3.60;;;;;;;;;;5037273;28;20443;-78
2023/05/02 08:34:40;;;;;;;6.27;3.20;;;;;;;;;;5055035;28;20406;-78
2023/05/02 08:37:08;;;;;;;6.40;3.30;;;;;;;;;;5055778;28;20499;-78
2023/05/02 08:39:34;;;;;;;4.87;2.80;;;;;;;;;;5040925;28;20935;-78
2023/05/02 08:42:01;;;;;;;8.30;2.92;;;;;;;;;;5059418;28;20801;-78
2023/05/02 08:44:27;;;;;;;5.57;3.13;;;;;;;;;;5058850;28;20166;-78
2023/05/02 08:46:54;;;;;;;5.23;3.47;;;;;;;;;;5041447;28;20408;-78
2023/05/02 08:49:20;;;;;;;3.20;2.40;;;;;;;;;;5059603;28;20791;-78
2023/05/02 08:51:50;;;;;;;3.13;2.10;;;;;;;;;;5040890;28;20192;-78
2023/05/02 08:54:16;;;;;;;7.80;2.60;;;;;;;;;;5058777;28;20404;-77
2023/05/02 08:56:42;;;;;;;4.47;2.60;;;;;;;;;;5041053;28;20778;-78
2023/05/02 08:59:08;;;;;;;3.37;1.80;;;;;;;;;;5041199;28;20411;-78
2023/05/02 09:01:35;;;;;;;5.00;2.65;;;;;;;;;;5058149;28;20446;-78
2023/05/02 09:04:01;;;;;;;3.70;2.23;;;;;;;;;;5040600;28;20661;-80
2023/05/02 09:06:28;;;;;;;4.80;3.73;;;;;;;;;;5058941;28;20408;-78
2023/05/02 09:08:54;;;;;;;6.20;3.00;;;;;;;;;;5024307;28;20467;-79
2023/05/02 09:11:21;;;;;;;6.37;2.13;;;;;;;;;;5057945;28;20907;-77
2023/05/02 09:13:51;;;;;;;6.67;2.37;;;;;;;;;;5040577;28;20396;-78
2023/05/02 09:16:17;;;;;;;8.97;2.53;;;;;;;;;;5040339;28;20469;-78
2023/05/02 09:18:44;;;;;;;7.27;2.73;;;;;;;;;;5040148;28;20408;-78
2023/05/02 09:21:15;;;;;;;4.47;2.37;;;;;;;;;;5040339;28;20950;-78
2023/05/02 09:23:42;;;;;;;3.63;2.20;;;;;;;;;;5040624;28;20486;-78
2023/05/02 09:26:12;;;;;;;8.43;3.00;;;;;;;;;;5058068;28;20494;-78
2023/05/02 09:28:39;;;;;;;5.03;2.40;;;;;;;;;;5039359;28;20476;-77
2023/05/02 09:31:10;;;;;;;13.27;2.83;;;;;;;;;;5040245;28;20470;-78
2023/05/02 09:33:36;;;;;;;5.60;2.80;;;;;;;;;;5040562;28;20519;-78
2023/05/02 09:36:02;;;;;;;6.13;2.80;;;;;;;;;;5040791;28;20490;-77
2023/05/02 09:38:29;;;;;;;6.10;2.70;;;;;;;;;;5057796;28;20438;-78
2023/05/02 09:40:55;;;;;;;10.73;3.10;;;;;;;;;;5058417;28;20400;-78
2023/05/02 09:43:21;;;;;;;4.93;2.37;;;;;;;;;;5057743;28;20424;-78
2023/05/02 09:46:03;;;;;;;3.10;2.20;;;;;;;;;;5039292;28;20416;-77
2023/05/02 09:48:29;;;;;;;6.07;2.70;;;;;;;;;;5038950;28;20967;-79
2023/05/02 09:50:56;;;;;;;4.17;2.50;;;;;;;;;;5039313;28;20423;-78
2023/05/02 09:53:23;;;;;;;4.90;2.60;;;;;;;;;;5057485;28;20699;-78
2023/05/02 09:55:58;;;;;;;7.53;2.70;;;;;;;;;;5057778;28;20472;-77
2023/05/02 09:58:24;;;;;;;7.83;2.87;;;;;;;;;;5057525;28;20399;-78
2023/05/02 10:00:51;;;;;;;7.80;2.20;;;;;;;;;;5039147;28;20399;-78
2023/05/02 10:03:17;;;;;;;4.83;2.80;;;;;;;;;;5023292;28;20394;-78
2023/05/02 10:05:44;;;;;;;9.63;3.20;;;;;;;;;;5057187;28;20454;-78
2023/05/02 10:08:11;;;;;;;6.30;2.80;;;;;;;;;;5039222;28;20486;-78
2023/05/02 10:10:38;;;;;;;8.40;3.20;;;;;;;;;;5039049;28;20423;-78
2023/05/02 10:13:05;;;;;;;5.33;3.37;;;;;;;;;;5039757;28;20386;-78
2023/05/02 10:15:33;;;;;;;8.00;3.03;;;;;;;;;;5056941;28;20375;-79
2023/05/02 10:18:02;;;;;;;8.30;3.50;;;;;;;;;;5038913;28;20407;-78
2023/05/02 10:20:35;;;;;;;5.70;3.53;;;;;;;;;;5038758;28;20900;-78
2023/05/02 10:23:02;;;;;;;8.80;3.43;;;;;;;;;;5057059;28;20388;-78
2023/05/02 10:25:28;;;;;;;8.67;4.83;;;;;;;;;;5056929;28;20383;-78
2023/05/02 10:27:57;;;;;;;9.40;3.77;;;;;;;;;;5021422;28;20451;-78
2023/05/02 10:30:23;;;;;;;6.00;3.87;;;;;;;;;;5056305;28;20419;-78
2023/05/02 10:32:51;;;;;;;8.60;3.50;;;;;;;;;;5038758;28;20957;-78
2023/05/02 10:35:17;;;;;;;8.27;3.50;;;;;;;;;;5039139;28;20432;-78
2023/05/02 10:37:44;;;;;;;5.87;4.13;;;;;;;;;;5038943;28;20474;-79
2023/05/02 10:40:11;;;;;;;7.10;3.00;;;;;;;;;;5021984;28;20416;-79
2023/05/02 10:42:38;;;;;;;9.10;3.20;;;;;;;;;;5038868;28;20404;-78
2023/05/02 10:45:04;;;;;;;6.63;3.40;;;;;;;;;;5038496;28;20408;-79
2023/05/02 10:47:31;;;;;;;7.07;2.77;;;;;;;;;;5055805;28;20405;-78
2023/05/02 10:50:01;;;;;;;9.83;2.93;;;;;;;;;;5038715;28;20471;-78
2023/05/02 10:52:32;;;;;;;4.57;2.73;;;;;;;;;;5037746;28;20486;-79
2023/05/02 10:55:18;;;;;;;3.57;2.57;;;;;;;;;;5056097;28;20380;-78
2023/05/02 10:57:59;;;;;;;4.20;2.60;;;;;;;;;;5055902;28;20381;-78
2023/05/02 11:00:30;;;;;;;10.37;2.83;;;;;;;;;;5038018;28;20419;-78
2023/05/02 11:02:56;;;;;;;4.83;3.10;;;;;;;;;;5037892;28;20526;-79
2023/05/02 11:05:26;;;;;;;4.70;3.07;;;;;;;;;;5038398;28;20387;-78
2023/05/02 11:08:15;;;;;;;7.60;3.40;;;;;;;;;;5055592;28;20435;-78
2023/05/02 11:10:41;;;;;;;10.00;4.47;;;;;;;;;;5032210;28;20489;-78
2023/05/02 11:13:07;;;;;;;5.53;4.73;;;;;;;;;;5037938;28;20446;-78
2023/05/02 11:15:33;;;;;;;8.67;5.63;;;;;;;;;;5037777;28;20405;-80
2023/05/02 11:18:11;;;;;;;8.43;5.23;;;;;;;;;;5037532;28;20420;-78
2023/05/02 11:20:38;;;;;;;9.63;4.40;;;;;;;;;;5037484;28;20418;-79
2023/05/02 11:23:20;;;;;;;11.93;4.70;;;;;;;;;;5036747;28;20428;-78
2023/05/02 11:25:49;;;;;;;7.73;3.40;;;;;;;;;;5055262;28;20403;-78
2023/05/02 11:28:28;;;;;;;8.97;4.80;;;;;;;;;;5055428;28;20455;-78
2023/05/02 11:30:54;;;;;;;9.40;4.40;;;;;;;;;;5037758;28;20417;-78
2023/05/02 11:33:20;;;;;;;12.40;5.30;;;;;;;;;;5055252;28;20408;-78
2023/05/02 11:35:47;;;;;;;10.70;5.43;;;;;;;;;;5037427;28;20463;-78
2023/05/02 11:38:14;;;;;;;10.87;5.40;;;;;;;;;;5055395;28;20383;-78
2023/05/02 11:40:41;;;;;;;13.03;6.20;;;;;;;;;;5055525;28;20404;-79
2023/05/02 11:43:14;;;;;;;9.13;5.30;;;;;;;;;;5054885;28;20966;-78
2023/05/02 11:45:41;;;;;;;10.27;5.93;;;;;;;;;;5020885;28;20570;-79
2023/05/02 11:48:08;;;;;;;10.47;4.80;;;;;;;;;;5021091;28;20467;-80
2023/05/02 11:50:40;;;;;;;14.90;4.53;;;;;;;;;;5055085;28;20419;-78
2023/05/02 11:53:09;;;;;;;9.23;4.57;;;;;;;;;;5037786;28;20408;-79
2023/05/02 11:55:35;;;;;;;7.93;4.60;;;;;;;;;;5036919;28;20412;-82
2023/05/02 11:58:01;;;;;;;15.00;5.13;;;;;;;;;;5037311;28;20395;-79
2023/05/02 12:00:27;;;;;;;7.10;3.30;;;;;;;;;;5037096;28;20478;-79
2023/05/02 12:02:53;;;;;;;11.43;3.57;;;;;;;;;;5020097;28;20474;-79
2023/05/02 12:05:28;;;;;;;10.47;3.53;;;;;;;;;;5020812;28;20416;-79
2023/05/02 12:07:55;;;;;;;10.47;3.80;;;;;;;;;;5036714;28;20422;-78
2023/05/02 12:10:21;;;;;;;6.00;4.40;;;;;;;;;;5020395;28;20753;-78
2023/05/02 12:12:47;;;;;;;4.50;3.10;;;;;;;;;;5036630;28;20416;-78
2023/05/02 12:15:13;;;;;;;7.00;3.70;;;;;;;;;;5037618;28;20404;-78
2023/05/02 12:17:43;;;;;;;5.33;3.47;;;;;;;;;;5036247;28;20412;-78
2023/05/02 12:20:10;;;;;;;7.83;4.20;;;;;;;;;;5054643;28;20371;-79
2023/05/02 12:22:36;;;;;;;7.07;3.80;;;;;;;;;;5054786;28;20382;-78
2023/05/02 12:25:03;;;;;;;9.03;4.90;;;;;;;;;;5036853;28;20418;-79
2023/05/02 12:27:32;;;;;;;7.70;4.30;;;;;;;;;;5054641;28;20386;-78
2023/05/02 12:29:58;;;;;;;9.57;4.83;;;;;;;;;;5054419;28;20463;-79
2023/05/02 12:32:44;;;;;;;7.70;4.77;;;;;;;;;;5054570;28;20542;-79
2023/05/02 12:35:22;;;;;;;6.20;4.10;;;;;;;;;;5037095;28;20820;-78
2023/05/02 12:37:48;;;;;;;10.73;4.53;;;;;;;;;;5053696;28;20389;-79
2023/05/02 12:40:17;;;;;;;9.40;5.03;;;;;;;;;;5019857;28;20386;-78
2023/05/02 12:42:57;;;;;;;7.10;4.90;;;;;;;;;;5036579;28;20423;-78
2023/05/02 12:45:23;;;;;;;8.27;4.57;;;;;;;;;;5054849;28;20758;-78
2023/05/02 12:47:50;;;;;;;9.00;4.90;;;;;;;;;;5036086;28;20447;-79
2023/05/02 12:50:16;;;;;;;8.47;5.03;;;;;;;;;;5036694;28;20444;-78
2023/05/02 12:52:46;;;;;;;8.87;4.30;;;;;;;;;;5036223;28;20426;-79
2023/05/02 12:55:16;;;;;;;9.13;5.10;;;;;;;;;;5036757;28;20427;-79
2023/05/02 12:57:42;;;;;;;8.33;4.57;;;;;;;;;;5036198;28;20496;-79
2023/05/02 13:00:08;;;;;;;5.53;4.37;;;;;;;;;;5053928;28;20472;-81
2023/05/02 13:02:35;;;;;;;8.03;4.80;;;;;;;;;;5052958;28;20470;-79
2023/05/02 13:05:01;;;;;;;8.10;3.83;;;;;;;;;;5053880;28;20408;-78
2023/05/02 13:07:28;;;;;;;6.60;4.20;;;;;;;;;;5054042;28;20952;-78
2023/05/02 13:09:54;;;;;;;8.33;4.70;;;;;;;;;;5036118;28;20685;-81
2023/05/02 13:12:20;;;;;;;3.40;3.07;;;;;;;;;;5036116;28;20776;-78
2023/05/02 13:14:46;;;;;;;11.57;3.80;;;;;;;;;;5053075;28;20387;-79
2023/05/02 13:17:12;;;;;;;10.07;3.80;;;;;;;;;;5019533;28;20419;-78
2023/05/02 13:19:38;;;;;;;6.80;3.50;;;;;;;;;;5046940;28;20387;-78
2023/05/02 13:22:04;;;;;;;12.20;3.90;;;;;;;;;;5034132;28;20828;-78
2023/05/02 13:24:30;;;;;;;4.90;3.23;;;;;;;;;;5013609;28;20407;-78
2023/05/02 13:26:56;;;;;;;7.53;3.40;;;;;;;;;;5019197;28;20421;-79
2023/05/02 13:29:22;;;;;;;5.03;3.87;;;;;;;;;;5017605;28;20559;-79
2023/05/02 13:31:48;;;;;;;7.63;3.87;;;;;;;;;;4897978;28;20439;-79
2023/05/02 13:34:14;;;;;;;12.43;3.47;;;;;;;;;;4851706;28;20824;-78
2023/05/02 13:36:44;;;;;;;6.37;3.20;;;;;;;;;;4828452;28;20783;-81
2023/05/02 13:39:11;;;;;;;8.50;3.33;;;;;;;;;;4851242;28;20456;-82
2023/05/02 13:41:37;;;;;;;5.20;3.00;;;;;;;;;;4898460;28;20503;-93
2023/05/02 13:44:04;;;;;;;6.60;3.80;;;;;;;;;;5005328;28;20456;-91
2023/05/02 13:46:35;;;;;;;6.50;3.10;;;;;;;;;;5029788;28;20391;-91
2023/05/02 13:49:01;;;;;;;7.63;3.60;;;;;;;;;;5030581;28;20485;-92
2023/05/02 13:51:27;;;;;;;6.63;3.57;;;;;;;;;;5012690;28;20417;-93
2023/05/02 13:53:54;;;;;;;6.50;3.40;;;;;;;;;;5032326;28;20464;-94
2023/05/02 13:56:20;;;;;;;6.33;3.40;;;;;;;;;;5036276;28;20411;-91
2023/05/02 13:58:46;;;;;;;9.30;3.43;;;;;;;;;;5028582;28;20427;-92
2023/05/02 14:01:12;;;;;;;4.60;3.13;;;;;;;;;;5021366;28;20943;-93
2023/05/02 14:03:38;;;;;;;4.30;3.53;;;;;;;;;;5005594;28;20906;-92
2023/05/02 14:06:04;;;;;;;5.43;3.90;;;;;;;;;;5019267;28;20433;-93
2023/05/02 14:08:30;;;;;;;5.97;3.30;;;;;;;;;;5003690;28;20469;-94
2023/05/02 14:10:57;;;;;;;7.17;4.20;;;;;;;;;;5005380;28;20421;-93
2023/05/02 14:13:23;;;;;;;5.40;3.40;;;;;;;;;;5001707;28;20504;-92
2023/05/02 14:15:49;;;;;;;9.57;3.40;;;;;;;;;;5001402;28;20406;-92
2023/05/02 14:18:15;;;;;;;6.90;3.77;;;;;;;;;;5018862;28;20488;-91
2023/05/02 14:20:42;;;;;;;6.47;3.60;;;;;;;;;;5019072;28;20409;-89
2023/05/02 14:23:08;;;;;;;6.87;3.37;;;;;;;;;;5061356;28;20409;-92
2023/05/02 14:25:35;;;;;;;6.13;3.63;;;;;;;;;;5045725;28;20882;-92